Time;durP1;ratioP1;P1;durP2;ratioP2;P2;SDS_P1;SDS_P2;PMS_P1;PMS_P2;Temp;Humidity;BMP_temperature;BMP_pressure;BME280_temperature;BME280_humidity;BME280_pressure;Samples;Min_cycle;Max_cycle;Signal;HPM_P1;HPM_P2
2022/06/16 00:00:22;;;;;;;6.72;3.70;;;;;;;14.12;93.69;98329.84;5046026;28;20025;-66
2022/06/16 00:02:50;;;;;;;6.82;3.85;;;;;;;13.90;97.62;98336.88;5047511;28;20017;-66
2022/06/16 00:05:19;;;;;;;8.60;4.00;;;;;;;14.00;96.84;98332.97;5046347;28;20380;-66
2022/06/16 00:07:45;;;;;;;10.98;4.55;;;;;;;13.85;96.61;98326.47;5046310;28;20021;-66
2022/06/16 00:10:12;;;;;;;7.50;4.00;;;;;;;13.97;97.43;98325.13;5046522;28;20017;-66
2022/06/16 00:12:38;;;;;;;6.85;4.03;;;;;;;13.93;96.55;98329.69;5063445;28;20021;-66
2022/06/16 00:15:06;;;;;;;7.03;3.92;;;;;;;13.90;96.36;98329.81;5066174;28;20035;-66
2022/06/16 00:17:32;;;;;;;7.13;3.75;;;;;;;13.88;96.70;98333.41;5066254;28;20244;-66
2022/06/16 00:19:57;;;;;;;6.93;3.38;;;;;;;13.93;96.79;98334.13;5065891;28;20048;-66
2022/06/16 00:22:23;;;;;;;6.75;3.65;;;;;;;14.03;97.61;98331.06;5058258;28;20032;-66
2022/06/16 00:24:48;;;;;;;7.43;4.07;;;;;;;14.05;96.91;98338.94;5046284;28;20052;-66
2022/06/16 00:27:14;;;;;;;6.93;3.95;;;;;;;13.89;97.49;98335.16;5045939;28;20216;-66
2022/06/16 00:29:39;;;;;;;5.75;4.00;;;;;;;13.96;95.77;98339.28;5046022;28;20032;-66
2022/06/16 00:32:05;;;;;;;6.80;3.63;;;;;;;13.84;96.40;98334.44;5045998;28;20045;-66
2022/06/16 00:34:31;;;;;;;5.00;3.63;;;;;;;13.96;96.34;98334.88;5046042;28;20029;-66
2022/06/16 00:36:57;;;;;;;4.68;3.58;;;;;;;14.00;96.27;98335.59;5045748;28;20217;-66
2022/06/16 00:39:22;;;;;;;5.80;3.50;;;;;;;14.07;95.70;98342.38;5045771;28;20028;-66
2022/06/16 00:41:47;;;;;;;6.38;3.58;;;;;;;14.01;96.57;98339.97;5045762;28;20022;-66
2022/06/16 00:44:17;;;;;;;7.95;4.07;;;;;;;13.97;97.40;98346.31;5059862;28;20071;-66
2022/06/16 00:46:43;;;;;;;4.90;3.42;;;;;;;14.13;96.80;98347.44;5065756;28;20021;-66
2022/06/16 00:49:12;;;;;;;8.13;3.85;;;;;;;14.09;96.17;98345.84;5065548;28;20312;-66
2022/06/16 00:51:42;;;;;;;5.28;3.55;;;;;;;13.95;96.75;98343.72;5051493;28;20029;-66
2022/06/16 00:54:31;;;;;;;5.68;3.97;;;;;;;14.02;96.93;98339.06;5045634;28;20243;-66
2022/06/16 00:57:03;;;;;;;6.00;3.80;;;;;;;14.12;96.57;98335.16;5044566;28;20350;-66
2022/06/16 00:59:29;;;;;;;6.22;3.42;;;;;;;14.09;95.07;98329.97;5045260;28;20056;-66
2022/06/16 01:01:55;;;;;;;4.75;3.03;;;;;;;14.07;95.03;98334.44;5045512;28;20033;-66
2022/06/16 01:07:09;;;;;;;6.00;3.97;;;;;;;13.74;95.44;98322.50;5060969;28;20100;-66
2022/06/16 01:09:35;;;;;;;5.72;3.60;;;;;;;13.83;96.13;98333.56;5062998;28;20382;-66
2022/06/16 01:15:14;;;;;;;7.55;4.20;;;;;;;13.88;96.02;98325.47;5064446;28;20048;-66
2022/06/16 01:18:18;;;;;;;9.65;4.30;;;;;;;13.84;95.42;98331.81;5064453;28;20355;-66
2022/06/16 01:20:52;;;;;;;5.95;3.65;;;;;;;13.67;95.41;98321.00;5043810;28;20053;-66
2022/06/16 01:24:05;;;;;;;8.85;4.50;;;;;;;13.33;97.64;98309.91;5044898;28;20053;-66
2022/06/16 01:27:01;;;;;;;7.90;4.32;;;;;;;13.19;99.18;98313.00;5062066;28;20059;-66
2022/06/16 01:29:35;;;;;;;6.85;4.10;;;;;;;13.30;100.00;98304.72;5064190;28;20031;-66
2022/06/16 01:32:10;;;;;;;13.73;4.07;;;;;;;13.32;100.00;98302.88;5064667;28;20024;-66
2022/06/16 01:34:46;;;;;;;6.85;4.07;;;;;;;13.45;99.06;98309.47;5062257;28;20041;-66
2022/06/16 01:37:17;;;;;;;5.00;3.50;;;;;;;13.44;98.62;98308.59;5044704;28;20052;-66
2022/06/16 01:39:58;;;;;;;7.68;3.83;;;;;;;13.39;97.91;98301.75;5044609;28;20059;-66
2022/06/16 01:42:36;;;;;;;5.70;4.07;;;;;;;13.36;97.10;98309.78;5044844;28;20025;-66
2022/06/16 01:45:12;;;;;;;6.07;3.65;;;;;;;13.29;96.74;98313.56;5049740;28;20047;-66
2022/06/16 01:47:42;;;;;;;8.65;4.10;;;;;;;13.38;97.55;98315.91;5063613;28;20088;-66
2022/06/16 01:50:14;;;;;;;5.88;3.55;;;;;;;13.28;97.06;98311.81;5063890;28;20119;-66
2022/06/16 01:53:06;;;;;;;6.13;3.80;;;;;;;13.29;97.16;98308.28;5063478;28;20025;-66
2022/06/16 01:55:49;;;;;;;5.78;3.15;;;;;;;13.24;95.95;98320.78;5062401;28;20033;-66
2022/06/16 01:58:24;;;;;;;4.82;3.47;;;;;;;13.21;97.15;98326.19;5048971;28;20320;-66
2022/06/16 02:00:53;;;;;;;5.88;4.03;;;;;;;13.17;97.20;98325.44;5063373;28;20025;-66
2022/06/16 02:03:37;;;;;;;7.13;3.78;;;;;;;12.94;99.74;98334.09;5062275;28;20325;-66
2022/06/16 02:06:12;;;;;;;11.25;4.03;;;;;;;13.11;100.00;98340.63;5044169;28;20028;-66
2022/06/16 02:08:43;;;;;;;6.13;3.80;;;;;;;13.26;99.68;98340.09;5044224;28;20036;-66
2022/06/16 02:11:19;;;;;;;9.07;3.88;;;;;;;13.14;99.95;98335.22;5048993;28;20221;-66
2022/06/16 02:14:00;;;;;;;6.00;3.55;;;;;;;13.37;100.00;98332.66;5060815;28;20033;-66
2022/06/16 02:16:29;;;;;;;7.07;4.28;;;;;;;13.51;98.91;98327.75;5044062;28;20064;-66
2022/06/16 02:18:56;;;;;;;9.57;4.10;;;;;;;13.45;98.48;98330.63;5044336;28;20109;-66
2022/06/16 02:21:38;;;;;;;6.43;3.90;;;;;;;13.46;98.76;98333.22;5043753;28;20095;-66
2022/06/16 02:24:06;;;;;;;4.60;3.13;;;;;;;13.59;98.22;98333.63;5048418;28;20082;-66
2022/06/16 02:26:32;;;;;;;10.13;3.58;;;;;;;13.66;98.20;98332.47;5047186;28;20089;-66
2022/06/16 02:29:00;;;;;;;5.93;3.53;;;;;;;13.72;98.05;98335.78;5043865;28;20033;-66
2022/06/16 02:31:46;;;;;;;6.78;3.50;;;;;;;13.74;97.86;98335.72;5058598;28;20027;-66
2022/06/16 02:34:48;;;;;;;5.55;3.25;;;;;;;13.74;97.33;98333.06;5053481;28;20017;-66
2022/06/16 02:37:28;;;;;;;7.97;3.90;;;;;;;13.53;96.94;98328.53;5043870;28;20036;-66
2022/06/16 02:40:06;;;;;;;4.93;3.63;;;;;;;13.62;96.74;98338.78;5062097;28;20276;-66
2022/06/16 02:42:55;;;;;;;7.10;3.40;;;;;;;13.53;97.40;98339.13;5062963;28;20028;-66
2022/06/16 02:45:29;;;;;;;5.50;3.47;;;;;;;13.56;97.85;98342.53;5043834;28;20028;-66
2022/06/16 02:48:07;;;;;;;8.43;3.90;;;;;;;13.62;97.65;98349.38;5043746;28;20034;-66
2022/06/16 02:50:57;;;;;;;6.00;3.35;;;;;;;13.46;98.06;98354.34;5043756;28;20025;-66
2022/06/16 02:53:41;;;;;;;5.60;3.40;;;;;;;13.61;97.79;98355.59;5055357;28;20273;-66
2022/06/16 02:56:37;;;;;;;5.25;3.38;;;;;;;13.61;96.88;98352.94;5062826;28;20216;-66
2022/06/16 02:59:06;;;;;;;5.70;3.90;;;;;;;13.64;97.55;98355.47;5062161;28;20224;-66
2022/06/16 03:01:33;;;;;;;9.00;3.67;;;;;;;13.65;97.37;98358.06;5043632;28;20055;-66
2022/06/16 03:04:18;;;;;;;6.00;3.22;;;;;;;13.54;98.70;98352.28;5059303;28;20088;-66
2022/06/16 03:06:45;;;;;;;6.47;3.58;;;;;;;13.63;98.15;98356.38;5062787;28;20095;-66
2022/06/16 03:09:12;;;;;;;5.95;3.30;;;;;;;13.61;97.79;98352.94;5062688;28;20036;-66
2022/06/16 03:11:38;;;;;;;6.20;3.72;;;;;;;13.44;99.02;98355.34;5052500;28;20093;-66
2022/06/16 03:14:03;;;;;;;5.30;3.78;;;;;;;13.44;99.61;98355.34;5044535;28;20053;-66
2022/06/16 03:16:30;;;;;;;6.15;3.50;;;;;;;13.52;98.70;98353.28;5043498;28;20245;-66
2022/06/16 03:18:56;;;;;;;10.65;3.72;;;;;;;13.42;98.56;98357.16;5043342;28;20044;-66
2022/06/16 03:21:21;;;;;;;4.93;3.15;;;;;;;13.49;98.20;98367.47;5044607;28;20025;-66
2022/06/16 03:23:47;;;;;;;7.43;3.60;;;;;;;13.54;98.26;98377.88;5047559;28;20047;-66
2022/06/16 03:26:13;;;;;;;8.88;3.88;;;;;;;13.58;98.51;98379.50;5043438;28;20029;-66
2022/06/16 03:28:39;;;;;;;5.75;3.60;;;;;;;13.63;98.39;98388.13;5043298;28;20049;-66
2022/06/16 03:31:04;;;;;;;6.00;4.18;;;;;;;13.63;98.30;98382.81;5043369;28;20229;-66
2022/06/16 03:33:29;;;;;;;6.43;3.53;;;;;;;13.69;98.09;98398.47;5058418;28;20059;-66
2022/06/16 03:35:56;;;;;;;4.97;3.15;;;;;;;13.68;97.76;98396.75;5066376;28;20032;-66
2022/06/16 03:41:05;;;;;;;9.40;3.60;;;;;;;13.50;98.70;98402.69;5066255;28;20023;-66
2022/06/16 03:43:31;;;;;;;5.03;3.42;;;;;;;13.55;98.86;98400.75;5048512;28;20085;-66
2022/06/16 03:45:56;;;;;;;6.68;3.45;;;;;;;13.54;98.80;98412.25;5046750;28;20022;-66
2022/06/16 03:48:22;;;;;;;3.92;3.10;;;;;;;13.61;98.82;98411.13;5046744;28;20025;-66
2022/06/16 03:50:47;;;;;;;11.93;3.67;;;;;;;13.47;98.83;98413.38;5056940;28;20024;-66
2022/06/16 03:53:13;;;;;;;7.50;4.30;;;;;;;13.44;99.06;98418.78;5051052;28;20088;-66
2022/06/16 03:55:38;;;;;;;5.03;3.33;;;;;;;13.51;99.21;98417.66;5046605;28;20112;-66
2022/06/16 03:58:03;;;;;;;8.32;3.40;;;;;;;13.51;99.63;98415.00;5046465;28;20021;-66
2022/06/16 04:00:29;;;;;;;4.22;3.03;;;;;;;13.58;99.29;98416.53;5046743;28;20025;-66
2022/06/16 04:05:40;;;;;;;8.18;3.75;;;;;;;13.74;98.72;98417.72;5065862;28;20258;-66
2022/06/16 04:08:06;;;;;;;4.30;3.28;;;;;;;13.67;98.85;98405.63;5065485;28;20024;-66
2022/06/16 04:10:32;;;;;;;4.40;3.20;;;;;;;13.81;98.39;98413.94;5065761;28;20066;-66
2022/06/16 04:12:57;;;;;;;7.03;3.83;;;;;;;13.93;98.05;98408.19;5049216;28;20317;-66
2022/06/16 04:15:22;;;;;;;6.32;3.38;;;;;;;13.98;97.60;98411.56;5046264;28;20022;-66
2022/06/16 04:17:48;;;;;;;5.82;3.25;;;;;;;14.00;98.07;98412.34;5046029;28;20051;-66
2022/06/16 04:20:13;;;;;;;6.00;3.47;;;;;;;14.05;97.76;98405.13;5046172;28;20036;-66
2022/06/16 04:22:40;;;;;;;4.85;3.22;;;;;;;14.14;97.82;98413.56;5059659;28;20267;-66
2022/06/16 04:25:07;;;;;;;9.48;3.83;;;;;;;14.16;97.34;98418.81;5056844;28;20224;-66
2022/06/16 04:27:32;;;;;;;6.90;3.92;;;;;;;14.13;97.97;98416.25;5046195;28;20025;-66
2022/06/16 04:29:58;;;;;;;4.63;3.45;;;;;;;14.22;97.00;98419.44;5047125;28;20216;-66
2022/06/16 04:32:23;;;;;;;5.13;3.40;;;;;;;14.64;96.16;98422.28;5058357;28;20020;-66
2022/06/16 04:34:49;;;;;;;9.85;3.78;;;;;;;15.56;92.53;98427.31;5049513;28;20026;-66
2022/06/16 04:37:14;;;;;;;5.38;3.80;;;;;;;16.26;88.67;98439.25;5045834;28;20321;-66
2022/06/16 04:39:40;;;;;;;6.45;3.50;;;;;;;15.98;88.59;98436.09;5045790;28;20092;-66
2022/06/16 04:42:06;;;;;;;5.47;3.20;;;;;;;15.56;90.52;98440.59;5055458;28;20025;-66
2022/06/16 04:44:32;;;;;;;11.07;3.70;;;;;;;15.53;90.29;98440.72;5065159;28;20013;-66
2022/06/16 04:46:58;;;;;;;7.72;3.58;;;;;;;15.24;91.21;98443.69;5048765;28;20092;-66
2022/06/16 04:49:23;;;;;;;5.55;3.40;;;;;;;15.08;93.84;98437.28;5045563;28;20202;-66
2022/06/16 04:51:49;;;;;;;6.57;3.50;;;;;;;15.45;91.58;98445.50;5053022;28;20052;-66
2022/06/16 04:54:14;;;;;;;4.72;3.38;;;;;;;15.45;91.20;98447.28;5054300;28;20029;-66
2022/06/16 04:56:39;;;;;;;7.40;3.40;;;;;;;15.34;91.08;98447.69;5045447;28;20033;-66
2022/06/16 04:59:05;;;;;;;8.07;3.92;;;;;;;15.07;92.38;98456.78;5043900;28;20021;-66
2022/06/16 05:01:30;;;;;;;6.78;3.33;;;;;;;15.06;92.93;98455.03;5047500;28;20020;-66
2022/06/16 05:03:56;;;;;;;7.60;4.00;;;;;;;16.25;89.47;98458.78;5063804;28;20051;-66
2022/06/16 05:06:21;;;;;;;9.70;3.83;;;;;;;17.06;85.62;98468.25;5063983;28;20370;-66
2022/06/16 05:08:48;;;;;;;3.75;3.03;;;;;;;17.77;84.12;98474.53;5061822;28;20024;-66
2022/06/16 05:11:14;;;;;;;5.88;3.50;;;;;;;18.67;79.95;98472.44;5051708;28;20033;-66
2022/06/16 05:13:39;;;;;;;4.25;2.80;;;;;;;18.40;77.67;98471.22;5063472;28;20063;-66
2022/06/16 05:16:05;;;;;;;4.50;2.92;;;;;;;18.32;79.21;98468.09;5063529;28;20024;-66
2022/06/16 05:18:31;;;;;;;5.03;3.45;;;;;;;19.06;77.78;98472.91;5063082;28;20045;-66
2022/06/16 05:21:08;;;;;;;6.07;2.92;;;;;;;19.85;74.13;98478.09;5053322;28;20032;-66
2022/06/16 05:23:34;;;;;;;4.18;3.00;;;;;;;20.58;73.50;98483.44;5062489;28;20076;-66
2022/06/16 05:25:59;;;;;;;6.05;2.97;;;;;;;21.13;71.50;98492.41;5063483;28;20029;-66
2022/06/16 05:28:25;;;;;;;5.82;3.10;;;;;;;21.60;70.16;98497.38;5063757;28;20201;-66
2022/06/16 05:30:50;;;;;;;6.22;2.92;;;;;;;21.87;70.35;98506.31;5063223;28;20033;-66
2022/06/16 05:33:16;;;;;;;4.38;2.70;;;;;;;22.31;69.26;98508.66;5063343;28;20048;-66
2022/06/16 05:35:42;;;;;;;8.13;3.92;;;;;;;22.40;67.61;98505.34;5063979;28;20025;-66
2022/06/16 05:38:07;;;;;;;6.35;3.30;;;;;;;22.92;66.99;98514.19;5064075;28;20024;-66
2022/06/16 05:40:33;;;;;;;7.43;3.50;;;;;;;23.52;65.07;98525.91;5063984;28;20031;-66
2022/06/16 05:42:58;;;;;;;5.65;3.78;;;;;;;23.14;64.45;98530.50;5064220;28;20301;-66
2022/06/16 05:45:24;;;;;;;5.75;3.13;;;;;;;23.52;63.10;98531.28;5063955;28;20021;-67
2022/06/16 05:47:49;;;;;;;6.25;3.55;;;;;;;23.99;63.42;98547.50;5063660;28;20351;-67
2022/06/16 05:50:17;;;;;;;6.80;3.13;;;;;;;24.27;61.50;98547.13;5062552;28;20066;-66
2022/06/16 05:52:43;;;;;;;5.80;3.50;;;;;;;24.66;60.33;98544.13;5055029;28;20198;-66
2022/06/16 05:55:12;;;;;;;4.38;3.13;;;;;;;24.98;60.74;98550.53;5063056;28;20033;-68
2022/06/16 05:57:37;;;;;;;6.65;3.70;;;;;;;24.66;60.66;98557.56;5063287;28;20021;-67
2022/06/16 06:00:05;;;;;;;5.32;3.47;;;;;;;25.29;58.64;98560.59;5062077;28;20095;-66
2022/06/16 06:02:30;;;;;;;5.47;3.63;;;;;;;24.39;59.67;98559.66;5044268;28;20221;-66
2022/06/16 06:04:55;;;;;;;6.70;3.80;;;;;;;24.20;60.91;98562.00;5045740;28;20029;-65
2022/06/16 06:07:21;;;;;;;9.82;4.30;;;;;;;24.91;60.66;98565.47;5044248;28;20052;-66
2022/06/16 06:18:09;;;;;;;7.57;3.95;;;;;;;26.17;55.25;98588.47;5043747;28;20052;-66
2022/06/16 06:20:34;;;;;;;5.03;3.33;;;;;;;25.86;52.49;98581.16;5051208;28;20074;-66
2022/06/16 06:22:59;;;;;;;7.47;4.90;;;;;;;27.01;52.56;98598.28;5044029;28;20056;-66
2022/06/16 06:25:25;;;;;;;8.98;4.13;;;;;;;27.47;49.04;98597.00;5056065;28;20024;-66
2022/06/16 06:27:51;;;;;;;7.68;4.22;;;;;;;27.91;51.94;98602.03;5063264;28;20036;-66
2022/06/16 06:30:24;;;;;;;8.35;3.92;;;;;;;28.40;51.08;98600.13;5052767;28;20328;-66
2022/06/16 06:32:49;;;;;;;7.78;4.38;;;;;;;27.43;47.58;98585.63;5057850;28;20020;-66
2022/06/16 06:35:21;;;;;;;6.32;3.72;;;;;;;28.18;49.11;98603.09;5061990;28;20020;-66
2022/06/16 06:37:48;;;;;;;6.57;3.95;;;;;;;28.01;48.15;98592.97;5062936;28;20051;-66
2022/06/16 06:40:20;;;;;;;6.72;4.50;;;;;;;28.41;45.77;98599.13;5050030;28;20343;-66
2022/06/16 06:42:47;;;;;;;6.32;3.97;;;;;;;28.42;44.67;98598.16;5043838;28;20025;-66
2022/06/16 06:45:12;;;;;;;5.60;3.95;;;;;;;28.80;45.73;98614.44;5043835;28;20025;-66
2022/06/16 06:47:38;;;;;;;5.90;3.65;;;;;;;29.31;46.30;98618.66;5043808;28;20057;-66
2022/06/16 06:50:04;;;;;;;8.30;4.00;;;;;;;29.59;43.84;98617.72;5044939;28;20315;-66
2022/06/16 06:52:29;;;;;;;9.13;4.30;;;;;;;29.79;43.86;98625.66;5043658;28;20023;-66
2022/06/16 06:54:55;;;;;;;6.47;3.60;;;;;;;29.79;42.81;98624.78;5043731;28;20101;-66
2022/06/16 06:57:23;;;;;;;9.35;4.07;;;;;;;30.35;42.88;98634.53;5054177;28;20036;-66
2022/06/16 06:59:49;;;;;;;5.25;3.78;;;;;;;30.38;42.63;98625.22;5048915;28;20029;-66
2022/06/16 07:02:16;;;;;;;7.70;4.05;;;;;;;30.36;42.29;98629.94;5043681;28;20025;-66
2022/06/16 07:04:42;;;;;;;6.78;4.55;;;;;;;29.92;41.84;98636.16;5043738;28;20311;-66
2022/06/16 07:07:14;;;;;;;13.48;4.93;;;;;;;29.94;41.59;98634.16;5043602;28;20033;-66
2022/06/16 07:09:40;;;;;;;7.10;3.70;;;;;;;30.32;42.95;98647.56;5055582;28;20017;-66
2022/06/16 07:12:13;;;;;;;6.25;3.80;;;;;;;30.15;42.14;98642.91;5047416;28;20021;-66
2022/06/16 07:14:40;;;;;;;10.70;4.68;;;;;;;30.25;43.08;98647.34;5047252;28;20041;-66
2022/06/16 07:17:05;;;;;;;8.30;3.95;;;;;;;30.49;42.05;98649.44;5047347;28;20032;-66
2022/06/16 07:19:34;;;;;;;6.70;4.07;;;;;;;30.70;42.55;98639.13;5057602;28;20041;-66
2022/06/16 07:21:59;;;;;;;5.95;3.83;;;;;;;30.29;42.10;98650.56;5066628;28;20021;-66
2022/06/16 07:24:25;;;;;;;6.75;4.03;;;;;;;30.58;41.65;98645.81;5051789;28;20045;-66
2022/06/16 07:26:50;;;;;;;7.35;3.65;;;;;;;31.20;41.16;98653.91;5062002;28;20075;-66
2022/06/16 07:29:16;;;;;;;4.78;3.25;;;;;;;31.60;40.55;98662.38;5066279;28;20031;-66
2022/06/16 07:31:41;;;;;;;12.15;4.05;;;;;;;31.32;39.20;98651.81;5066480;28;20028;-66
2022/06/16 07:34:07;;;;;;;6.40;3.90;;;;;;;31.55;39.25;98656.56;5066365;28;20096;-66
2022/06/16 07:36:32;;;;;;;8.35;3.95;;;;;;;31.50;39.21;98661.63;5054909;28;20325;-66
2022/06/16 07:38:57;;;;;;;5.70;3.53;;;;;;;31.35;39.41;98657.78;5046923;28;20121;-66
2022/06/16 07:41:33;;;;;;;7.35;3.58;;;;;;;31.39;39.82;98663.75;5046932;28;20029;-66
2022/06/16 07:44:00;;;;;;;7.53;3.70;;;;;;;31.32;39.55;98652.69;5047942;28;20029;-66
2022/06/16 07:46:25;;;;;;;6.70;3.42;;;;;;;31.83;39.47;98663.59;5055940;28;20320;-66
2022/06/16 07:48:51;;;;;;;8.88;3.95;;;;;;;32.16;39.10;98665.44;5061699;28;20032;-66
2022/06/16 07:51:18;;;;;;;6.07;3.45;;;;;;;32.23;38.38;98669.22;5049331;28;20092;-66
2022/06/16 07:53:43;;;;;;;6.35;3.45;;;;;;;31.86;37.62;98657.78;5066012;28;20334;-66
2022/06/16 07:56:08;;;;;;;7.30;3.45;;;;;;;32.00;36.86;98653.59;5051081;28;20049;-66
2022/06/16 07:58:34;;;;;;;8.95;3.85;;;;;;;31.44;38.62;98651.38;5046624;28;20029;-66
2022/06/16 08:00:59;;;;;;;4.60;2.95;;;;;;;31.87;38.07;98653.22;5046752;28;20252;-66
2022/06/16 08:03:27;;;;;;;6.45;3.35;;;;;;;32.18;36.50;98660.69;5046736;28;20017;-66
2022/06/16 08:05:54;;;;;;;5.03;2.88;;;;;;;32.14;38.51;98656.56;5054358;28;20071;-66
2022/06/16 08:08:23;;;;;;;5.68;3.33;;;;;;;32.34;36.97;98658.06;5053061;28;20260;-66
2022/06/16 08:10:49;;;;;;;6.20;3.03;;;;;;;32.33;37.49;98659.06;5065731;28;20021;-66
2022/06/16 08:13:15;;;;;;;7.72;3.50;;;;;;;31.95;36.04;98667.72;5065590;28;20025;-66
2022/06/16 08:15:45;;;;;;;6.97;3.05;;;;;;;31.94;37.21;98663.28;5055737;28;20029;-66
2022/06/16 08:18:12;;;;;;;7.30;3.85;;;;;;;31.93;37.54;98664.31;5046298;28;20101;-66
2022/06/16 08:20:38;;;;;;;9.23;3.50;;;;;;;32.05;36.72;98663.00;5045888;28;20031;-66
2022/06/16 08:23:03;;;;;;;6.60;3.60;;;;;;;32.47;37.06;98674.78;5046122;28;20041;-66
2022/06/16 08:25:30;;;;;;;6.53;3.63;;;;;;;32.72;35.26;98682.00;5053362;28;20096;-66
2022/06/16 08:27:55;;;;;;;6.32;3.42;;;;;;;32.80;35.54;98687.47;5065076;28;20032;-66
2022/06/16 08:30:23;;;;;;;9.13;3.25;;;;;;;32.58;35.82;98679.91;5052996;28;20017;-66
2022/06/16 08:32:49;;;;;;;5.07;3.58;;;;;;;32.21;36.83;98673.94;5061319;28;20094;-66
2022/06/16 08:35:14;;;;;;;6.15;3.22;;;;;;;32.66;36.76;98688.13;5063980;28;20032;-66
2022/06/16 08:37:40;;;;;;;4.68;3.03;;;;;;;32.95;35.82;98699.47;5065348;28;20028;-66
2022/06/16 08:40:06;;;;;;;5.65;3.28;;;;;;;32.91;35.51;98695.38;5065198;28;20045;-66
2022/06/16 08:42:43;;;;;;;8.35;3.83;;;;;;;32.97;37.46;98691.94;5056395;28;20025;-66
2022/06/16 08:45:16;;;;;;;7.50;3.75;;;;;;;32.98;36.58;98710.03;5047129;28;20017;-66
2022/06/16 08:47:47;;;;;;;3.83;2.80;;;;;;;33.01;37.00;98698.78;5062170;28;20096;-66
2022/06/16 08:50:37;;;;;;;8.80;3.40;;;;;;;33.33;36.15;98708.88;5061048;28;20026;-66
2022/06/16 08:53:24;;;;;;;8.70;3.72;;;;;;;33.19;36.36;98714.16;5047375;28;20168;-66
2022/06/16 08:55:58;;;;;;;8.07;3.72;;;;;;;33.01;35.55;98717.88;5056425;28;20036;-66
2022/06/16 08:59:03;;;;;;;12.70;3.90;;;;;;;32.91;36.33;98705.41;5045434;28;20029;-66
2022/06/16 09:01:36;;;;;;;6.28;3.40;;;;;;;33.05;34.55;98702.88;5037453;28;20427;-66
2022/06/16 09:04:27;;;;;;;7.15;3.40;;;;;;;33.42;33.66;98699.69;5054850;28;20017;-66
2022/06/16 09:07:36;;;;;;;8.48;3.85;;;;;;;33.65;34.99;98705.28;5060366;28;20232;-66
2022/06/16 09:10:33;;;;;;;7.00;3.20;;;;;;;34.04;34.36;98714.47;5057726;28;20033;-66
2022/06/16 09:13:18;;;;;;;8.07;3.38;;;;;;;33.40;34.61;98709.09;5046204;28;20037;-66
2022/06/16 09:16:08;;;;;;;6.68;3.42;;;;;;;34.17;32.16;98714.78;5057777;28;20221;-66
2022/06/16 09:18:48;;;;;;;7.53;3.30;;;;;;;34.36;32.98;98733.53;5058053;28;20040;-66
2022/06/16 09:21:19;;;;;;;5.65;2.80;;;;;;;33.44;33.58;98715.91;5054709;28;20279;-66
2022/06/16 09:24:15;;;;;;;8.20;3.22;;;;;;;33.88;32.72;98711.78;5046335;28;20323;-66
2022/06/16 09:26:52;;;;;;;8.38;3.20;;;;;;;33.52;33.58;98716.75;5057673;28;20055;-66
2022/06/16 09:29:27;;;;;;;9.57;3.38;;;;;;;33.21;34.44;98728.47;5064026;28;20351;-66
2022/06/16 09:32:08;;;;;;;6.82;3.30;;;;;;;33.65;33.82;98727.13;5062000;28;20021;-66
2022/06/16 09:34:59;;;;;;;6.82;3.47;;;;;;;34.15;34.56;98730.47;5045835;28;20025;-66
2022/06/16 09:37:35;;;;;;;3.67;2.80;;;;;;;34.22;33.90;98737.81;5044736;28;20028;-66
2022/06/16 09:40:14;;;;;;;7.28;3.53;;;;;;;34.28;32.14;98731.66;5044677;28;20029;-68
2022/06/16 09:43:03;;;;;;;7.53;3.22;;;;;;;34.19;32.69;98732.69;5055787;28;20379;-67
2022/06/16 09:45:33;;;;;;;7.82;3.70;;;;;;;33.36;33.82;98744.03;5051213;28;20060;-66
2022/06/16 09:48:08;;;;;;;8.65;3.05;;;;;;;34.36;32.84;98747.19;5047581;28;20033;-67
2022/06/16 09:50:33;;;;;;;7.10;3.10;;;;;;;34.30;33.57;98740.53;5056623;28;20024;-67
2022/06/16 09:53:13;;;;;;;5.68;3.03;;;;;;;33.94;33.49;98743.88;5055303;28;20052;-67
2022/06/16 09:55:55;;;;;;;6.30;3.08;;;;;;;34.36;32.01;98744.47;5045829;28;20048;-67
2022/06/16 09:58:52;;;;;;;6.47;3.20;;;;;;;33.79;33.09;98740.09;5044395;28;20029;-67
2022/06/16 10:01:20;;;;;;;13.80;3.42;;;;;;;34.18;32.64;98754.72;5043982;28;20112;-67
2022/06/16 10:04:12;;;;;;;8.13;3.50;;;;;;;34.25;32.99;98756.59;5058600;28;20074;-67
2022/06/16 10:06:57;;;;;;;5.70;3.35;;;;;;;34.28;32.60;98758.13;5061224;28;20044;-67
2022/06/16 10:09:40;;;;;;;6.25;3.40;;;;;;;33.90;32.11;98761.63;5063349;28;20090;-67
2022/06/16 10:12:18;;;;;;;4.95;3.20;;;;;;;34.01;32.17;98755.81;5062407;28;20053;-67
2022/06/16 10:14:55;;;;;;;8.57;3.75;;;;;;;33.43;34.44;98749.69;5049455;28;20033;-67
2022/06/16 10:17:23;;;;;;;6.63;3.42;;;;;;;33.03;34.11;98743.09;5062979;28;20028;-67
2022/06/16 10:19:50;;;;;;;6.05;3.58;;;;;;;32.68;35.04;98754.22;5063061;28;20059;-67
2022/06/16 10:22:19;;;;;;;7.03;3.53;;;;;;;33.80;34.81;98763.66;5063939;28;20048;-67
2022/06/16 10:24:48;;;;;;;12.25;3.42;;;;;;;33.85;31.63;98761.25;5060598;28;20017;-67
2022/06/16 10:27:16;;;;;;;7.70;3.10;;;;;;;34.06;32.63;98758.84;5060955;28;20029;-67
2022/06/16 10:29:57;;;;;;;7.30;2.97;;;;;;;34.24;31.72;98774.03;5063934;28;20021;-67
2022/06/16 10:32:44;;;;;;;8.38;3.35;;;;;;;34.08;34.45;98768.59;5061967;28;20031;-67
2022/06/16 10:35:19;;;;;;;6.50;3.78;;;;;;;33.52;33.88;98765.00;5062833;28;20078;-67
2022/06/16 10:37:49;;;;;;;6.35;3.22;;;;;;;34.27;32.91;98778.28;5061524;28;20048;-67
2022/06/16 10:40:19;;;;;;;5.50;3.50;;;;;;;34.23;33.45;98782.41;5053461;28;20066;-67
2022/06/16 10:42:54;;;;;;;5.53;3.28;;;;;;;34.52;33.32;98771.75;5044056;28;20025;-67
2022/06/16 10:45:25;;;;;;;5.15;2.88;;;;;;;34.22;31.98;98769.75;5046575;28;20349;-67
2022/06/16 10:48:01;;;;;;;5.37;3.17;;;;;;;34.03;32.46;98768.25;5051842;28;20017;-67
2022/06/16 10:51:15;;;;;;;5.75;3.08;;;;;;;33.63;34.45;98772.88;5066066;28;20021;-67
2022/06/16 10:53:47;;;;;;;8.52;3.53;;;;;;;33.53;32.35;98766.75;5033608;28;20029;-67
2022/06/16 10:56:22;;;;;;;4.43;2.90;;;;;;;33.73;34.24;98768.09;5046806;28;20033;-67
2022/06/16 10:58:58;;;;;;;4.55;3.03;;;;;;;33.69;33.82;98761.28;5059179;28;20332;-67
2022/06/16 11:01:25;;;;;;;6.90;3.42;;;;;;;33.49;33.18;98766.22;5066645;28;20311;-67
2022/06/16 11:04:02;;;;;;;7.32;3.13;;;;;;;33.98;34.85;98767.91;5066605;28;20017;-67
2022/06/16 11:06:28;;;;;;;4.65;2.95;;;;;;;34.09;32.45;98763.97;5066551;28;20029;-67
2022/06/16 11:09:01;;;;;;;6.80;3.30;;;;;;;33.60;31.81;98762.28;5064568;28;20028;-67
2022/06/16 11:11:33;;;;;;;8.70;3.30;;;;;;;34.10;31.86;98754.78;5046297;28;20037;-67
2022/06/16 11:14:02;;;;;;;7.97;3.10;;;;;;;33.66;33.17;98765.19;5046367;28;20013;-67
2022/06/16 11:16:37;;;;;;;6.53;3.47;;;;;;;33.95;35.41;98761.97;5046385;28;20052;-67
2022/06/16 11:19:08;;;;;;;5.90;2.88;;;;;;;33.95;32.75;98748.31;5049022;28;20109;-67
2022/06/16 11:21:35;;;;;;;5.57;3.00;;;;;;;33.42;32.11;98742.50;5059170;28;20088;-67
2022/06/16 11:24:06;;;;;;;8.90;3.08;;;;;;;32.96;32.22;98752.97;5051969;28;20044;-67
2022/06/16 11:26:35;;;;;;;4.77;2.83;;;;;;;32.75;32.28;98748.97;5065046;28;20216;-67
2022/06/16 11:29:11;;;;;;;5.78;2.60;;;;;;;33.02;33.27;98752.31;5061072;28;20088;-67
2022/06/16 11:31:38;;;;;;;7.40;2.75;;;;;;;32.85;31.37;98756.03;5046456;28;20309;-67
2022/06/16 11:34:25;;;;;;;8.25;3.33;;;;;;;32.39;32.30;98763.81;5057752;28;20033;-67
2022/06/16 11:37:03;;;;;;;4.68;3.22;;;;;;;32.18;31.32;98756.03;5065532;28;20032;-67
2022/06/16 11:40:04;;;;;;;4.65;2.58;;;;;;;32.33;32.17;98759.88;5053544;28;20189;-67
2022/06/16 11:42:52;;;;;;;7.57;2.88;;;;;;;32.16;32.31;98755.31;5062904;28;20021;-67
2022/06/16 11:46:06;;;;;;;8.10;3.17;;;;;;;31.77;33.42;98740.41;5045908;28;20021;-67
2022/06/16 11:48:58;;;;;;;8.10;3.65;;;;;;;31.65;35.45;98749.84;5047643;28;20045;-67
2022/06/16 11:51:32;;;;;;;5.72;3.00;;;;;;;31.31;35.65;98743.44;5056625;28;20069;-67
2022/06/16 11:54:04;;;;;;;8.52;2.90;;;;;;;31.21;34.92;98748.06;5064512;28;20034;-67
2022/06/16 11:57:10;;;;;;;8.75;3.25;;;;;;;31.15;35.59;98743.25;5065020;28;20079;-67
2022/06/16 11:59:58;;;;;;;9.55;3.38;;;;;;;31.15;35.52;98738.69;5049937;28;20062;-67
2022/06/16 12:02:38;;;;;;;6.88;3.38;;;;;;;31.01;35.09;98741.09;5057845;28;20096;-67
2022/06/16 12:05:22;;;;;;;5.28;3.10;;;;;;;31.15;33.50;98732.38;5063176;28;20094;-67
2022/06/16 12:08:21;;;;;;;5.50;2.85;;;;;;;30.78;33.36;98734.41;5051579;28;20025;-67
2022/06/16 12:10:52;;;;;;;5.20;3.03;;;;;;;30.40;35.02;98745.44;5054706;28;20033;-65
2022/06/16 12:13:27;;;;;;;6.57;3.63;;;;;;;30.12;34.12;98740.97;5045370;28;20033;-67
2022/06/16 12:15:59;;;;;;;4.80;3.05;;;;;;;30.04;33.29;98743.56;5045350;28;20021;-66